sensor_id;sensor_type;location;lat;lon;timestamp;P1;durP1;ratioP1;P2;durP2;ratioP2
47349;SDS011;33088;51.982;5.872;2023-03-24T00:00:07;7.85;;;3.60;;
47349;SDS011;33088;51.982;5.872;2023-03-24T00:02:37;10.07;;;2.93;;
47349;SDS011;33088;51.982;5.872;2023-03-24T00:05:15;9.45;;;3.08;;
47349;SDS011;33088;51.982;5.872;2023-03-24T00:07:42;8.35;;;3.05;;
47349;SDS011;33088;51.982;5.872;2023-03-24T00:10:16;9.70;;;3.40;;
47349;SDS011;33088;51.982;5.872;2023-03-24T00:12:44;11.95;;;3.75;;
47349;SDS011;33088;51.982;5.872;2023-03-24T00:15:12;5.53;;;2.70;;
47349;SDS011;33088;51.982;5.872;2023-03-24T00:17:40;12.02;;;3.67;;
47349;SDS011;33088;51.982;5.872;2023-03-24T00:20:06;8.32;;;3.53;;
47349;SDS011;33088;51.982;5.872;2023-03-24T00:22:39;6.70;;;3.45;;
47349;SDS011;33088;51.982;5.872;2023-03-24T00:25:07;9.25;;;4.15;;
47349;SDS011;33088;51.982;5.872;2023-03-24T00:27:34;8.63;;;3.53;;
47349;SDS011;33088;51.982;5.872;2023-03-24T00:30:02;11.13;;;4.00;;
47349;SDS011;33088;51.982;5.872;2023-03-24T00:32:31;7.07;;;3.30;;
47349;SDS011;33088;51.982;5.872;2023-03-24T00:34:57;6.93;;;3.55;;
47349;SDS011;33088;51.982;5.872;2023-03-24T00:37:22;5.80;;;2.83;;
47349;SDS011;33088;51.982;5.872;2023-03-24T00:39:48;6.35;;;3.47;;
47349;SDS011;33088;51.982;5.872;2023-03-24T00:42:15;9.32;;;3.95;;
47349;SDS011;33088;51.982;5.872;2023-03-24T00:44:41;5.47;;;3.88;;
47349;SDS011;33088;51.982;5.872;2023-03-24T00:47:08;7.25;;;3.65;;
47349;SDS011;33088;51.982;5.872;2023-03-24T00:49:35;8.75;;;3.88;;
47349;SDS011;33088;51.982;5.872;2023-03-24T00:52:12;6.45;;;3.42;;
47349;SDS011;33088;51.982;5.872;2023-03-24T00:54:42;10.55;;;3.25;;
47349;SDS011;33088;51.982;5.872;2023-03-24T00:57:10;5.65;;;3.65;;
47349;SDS011;33088;51.982;5.872;2023-03-24T00:59:46;7.78;;;3.85;;
47349;SDS011;33088;51.982;5.872;2023-03-24T01:02:17;6.00;;;3.97;;
47349;SDS011;33088;51.982;5.872;2023-03-24T01:04:46;6.20;;;3.65;;
47349;SDS011;33088;51.982;5.872;2023-03-24T01:07:20;6.32;;;3.30;;
47349;SDS011;33088;51.982;5.872;2023-03-24T01:09:46;10.23;;;3.85;;
47349;SDS011;33088;51.982;5.872;2023-03-24T01:12:21;7.63;;;3.67;;
47349;SDS011;33088;51.982;5.872;2023-03-24T01:14:48;8.02;;;3.78;;
47349;SDS011;33088;51.982;5.872;2023-03-24T01:17:14;7.38;;;3.83;;
47349;SDS011;33088;51.982;5.872;2023-03-24T01:19:40;4.63;;;3.47;;
47349;SDS011;33088;51.982;5.872;2023-03-24T01:22:06;6.10;;;3.38;;
47349;SDS011;33088;51.982;5.872;2023-03-24T01:24:32;6.30;;;4.03;;
47349;SDS011;33088;51.982;5.872;2023-03-24T01:26:58;9.30;;;3.53;;
47349;SDS011;33088;51.982;5.872;2023-03-24T01:29:23;6.57;;;3.17;;
47349;SDS011;33088;51.982;5.872;2023-03-24T01:31:49;4.38;;;3.58;;
47349;SDS011;33088;51.982;5.872;2023-03-24T01:34:15;5.25;;;3.00;;
47349;SDS011;33088;51.982;5.872;2023-03-24T01:36:41;6.53;;;3.28;;
47349;SDS011;33088;51.982;5.872;2023-03-24T01:39:06;6.43;;;3.80;;
47349;SDS011;33088;51.982;5.872;2023-03-24T01:41:34;5.97;;;3.63;;
47349;SDS011;33088;51.982;5.872;2023-03-24T01:44:21;5.30;;;3.72;;
47349;SDS011;33088;51.982;5.872;2023-03-24T01:46:53;5.38;;;3.92;;
47349;SDS011;33088;51.982;5.872;2023-03-24T01:49:20;5.82;;;2.95;;
47349;SDS011;33088;51.982;5.872;2023-03-24T01:51:48;6.25;;;3.55;;
47349;SDS011;33088;51.982;5.872;2023-03-24T01:54:23;7.05;;;3.38;;
47349;SDS011;33088;51.982;5.872;2023-03-24T01:57:00;9.18;;;3.33;;
47349;SDS011;33088;51.982;5.872;2023-03-24T01:59:34;6.43;;;4.22;;
47349;SDS011;33088;51.982;5.872;2023-03-24T02:02:09;7.22;;;4.10;;
47349;SDS011;33088;51.982;5.872;2023-03-24T02:04:52;9.73;;;3.95;;
47349;SDS011;33088;51.982;5.872;2023-03-24T02:07:33;6.30;;;4.05;;
47349;SDS011;33088;51.982;5.872;2023-03-24T02:10:10;4.38;;;3.47;;
47349;SDS011;33088;51.982;5.872;2023-03-24T02:12:39;6.70;;;4.22;;
47349;SDS011;33088;51.982;5.872;2023-03-24T02:15:07;4.32;;;3.83;;
47349;SDS011;33088;51.982;5.872;2023-03-24T02:17:53;5.85;;;3.85;;
47349;SDS011;33088;51.982;5.872;2023-03-24T02:20:38;3.83;;;3.45;;
47349;SDS011;33088;51.982;5.872;2023-03-24T02:29:00;5.13;;;3.55;;
47349;SDS011;33088;51.982;5.872;2023-03-24T02:34:36;4.63;;;3.58;;
47349;SDS011;33088;51.982;5.872;2023-03-24T02:37:43;6.60;;;3.60;;
47349;SDS011;33088;51.982;5.872;2023-03-24T02:40:32;4.10;;;3.25;;
47349;SDS011;33088;51.982;5.872;2023-03-24T02:49:06;9.68;;;3.88;;
47349;SDS011;33088;51.982;5.872;2023-03-24T02:51:49;4.72;;;3.85;;
47349;SDS011;33088;51.982;5.872;2023-03-24T03:00:38;5.55;;;3.35;;
47349;SDS011;33088;51.982;5.872;2023-03-24T03:03:22;8.70;;;4.23;;
47349;SDS011;33088;51.982;5.872;2023-03-24T03:06:14;6.93;;;4.03;;
47349;SDS011;33088;51.982;5.872;2023-03-24T03:08:42;4.60;;;4.00;;
47349;SDS011;33088;51.982;5.872;2023-03-24T03:11:12;4.63;;;4.22;;
47349;SDS011;33088;51.982;5.872;2023-03-24T03:13:51;10.73;;;5.82;;
47349;SDS011;33088;51.982;5.872;2023-03-24T03:16:26;3.90;;;3.17;;
47349;SDS011;33088;51.982;5.872;2023-03-24T03:19:04;2.28;;;1.90;;
47349;SDS011;33088;51.982;5.872;2023-03-24T03:21:35;4.88;;;1.95;;
47349;SDS011;33088;51.982;5.872;2023-03-24T03:24:10;3.42;;;3.13;;
47349;SDS011;33088;51.982;5.872;2023-03-24T03:26:59;2.40;;;1.90;;
47349;SDS011;33088;51.982;5.872;2023-03-24T03:32:00;2.97;;;2.22;;
47349;SDS011;33088;51.982;5.872;2023-03-24T03:34:48;2.55;;;1.83;;
47349;SDS011;33088;51.982;5.872;2023-03-24T03:40:22;3.25;;;1.88;;
47349;SDS011;33088;51.982;5.872;2023-03-24T03:43:05;7.05;;;1.98;;
47349;SDS011;33088;51.982;5.872;2023-03-24T03:45:32;5.80;;;1.70;;
47349;SDS011;33088;51.982;5.872;2023-03-24T03:47:59;6.50;;;2.22;;
47349;SDS011;33088;51.982;5.872;2023-03-24T03:50:26;5.93;;;1.42;;
47349;SDS011;33088;51.982;5.872;2023-03-24T03:52:59;3.88;;;1.40;;
47349;SDS011;33088;51.982;5.872;2023-03-24T03:55:25;7.78;;;1.90;;
47349;SDS011;33088;51.982;5.872;2023-03-24T03:57:52;8.82;;;1.70;;
47349;SDS011;33088;51.982;5.872;2023-03-24T04:00:38;6.78;;;1.60;;
47349;SDS011;33088;51.982;5.872;2023-03-24T04:06:00;3.15;;;1.50;;
47349;SDS011;33088;51.982;5.872;2023-03-24T04:11:29;5.90;;;1.60;;
47349;SDS011;33088;51.982;5.872;2023-03-24T04:26:14;5.63;;;2.03;;
47349;SDS011;33088;51.982;5.872;2023-03-24T04:28:54;10.95;;;2.38;;
47349;SDS011;33088;51.982;5.872;2023-03-24T04:34:40;8.23;;;2.30;;
47349;SDS011;33088;51.982;5.872;2023-03-24T04:37:24;13.52;;;3.60;;
47349;SDS011;33088;51.982;5.872;2023-03-24T04:40:00;9.13;;;2.40;;
47349;SDS011;33088;51.982;5.872;2023-03-24T04:42:33;18.00;;;2.78;;
47349;SDS011;33088;51.982;5.872;2023-03-24T04:45:12;19.02;;;3.30;;
47349;SDS011;33088;51.982;5.872;2023-03-24T04:48:00;20.10;;;3.25;;
47349;SDS011;33088;51.982;5.872;2023-03-24T04:50:52;13.65;;;3.20;;
47349;SDS011;33088;51.982;5.872;2023-03-24T04:53:20;15.75;;;3.08;;
47349;SDS011;33088;51.982;5.872;2023-03-24T04:58:21;19.80;;;3.15;;
47349;SDS011;33088;51.982;5.872;2023-03-24T05:00:47;11.73;;;2.83;;
47349;SDS011;33088;51.982;5.872;2023-03-24T05:03:14;22.23;;;4.07;;
47349;SDS011;33088;51.982;5.872;2023-03-24T05:05:42;20.30;;;3.20;;
47349;SDS011;33088;51.982;5.872;2023-03-24T05:08:10;20.23;;;4.20;;
47349;SDS011;33088;51.982;5.872;2023-03-24T05:10:36;11.73;;;2.95;;
47349;SDS011;33088;51.982;5.872;2023-03-24T05:13:05;9.40;;;2.75;;
47349;SDS011;33088;51.982;5.872;2023-03-24T05:18:29;21.50;;;3.87;;
47349;SDS011;33088;51.982;5.872;2023-03-24T05:20:56;13.40;;;2.45;;
47349;SDS011;33088;51.982;5.872;2023-03-24T05:23:21;29.35;;;3.72;;
47349;SDS011;33088;51.982;5.872;2023-03-24T05:25:48;24.50;;;4.32;;
47349;SDS011;33088;51.982;5.872;2023-03-24T05:28:16;18.48;;;3.17;;
47349;SDS011;33088;51.982;5.872;2023-03-24T05:30:42;18.00;;;3.47;;
47349;SDS011;33088;51.982;5.872;2023-03-24T05:33:20;18.90;;;3.60;;
47349;SDS011;33088;51.982;5.872;2023-03-24T05:35:46;24.05;;;4.03;;
47349;SDS011;33088;51.982;5.872;2023-03-24T05:38:12;18.30;;;3.40;;
47349;SDS011;33088;51.982;5.872;2023-03-24T05:40:42;17.42;;;5.03;;
47349;SDS011;33088;51.982;5.872;2023-03-24T05:43:12;17.02;;;4.53;;
47349;SDS011;33088;51.982;5.872;2023-03-24T05:45:42;17.00;;;4.30;;
47349;SDS011;33088;51.982;5.872;2023-03-24T05:48:13;15.55;;;5.05;;
47349;SDS011;33088;51.982;5.872;2023-03-24T05:50:56;20.40;;;4.38;;
47349;SDS011;33088;51.982;5.872;2023-03-24T05:53:22;19.05;;;3.92;;
47349;SDS011;33088;51.982;5.872;2023-03-24T05:56:06;20.90;;;5.68;;
47349;SDS011;33088;51.982;5.872;2023-03-24T05:58:58;20.30;;;5.05;;
47349;SDS011;33088;51.982;5.872;2023-03-24T06:01:44;17.35;;;4.25;;
47349;SDS011;33088;51.982;5.872;2023-03-24T06:04:18;14.43;;;4.03;;
47349;SDS011;33088;51.982;5.872;2023-03-24T06:06:45;19.38;;;4.32;;
47349;SDS011;33088;51.982;5.872;2023-03-24T06:09:14;16.35;;;3.85;;
47349;SDS011;33088;51.982;5.872;2023-03-24T06:11:43;23.85;;;4.88;;
47349;SDS011;33088;51.982;5.872;2023-03-24T06:14:09;16.50;;;4.68;;
47349;SDS011;33088;51.982;5.872;2023-03-24T06:16:47;21.52;;;4.60;;
47349;SDS011;33088;51.982;5.872;2023-03-24T06:19:16;15.85;;;4.00;;
47349;SDS011;33088;51.982;5.872;2023-03-24T06:21:57;19.20;;;4.03;;
47349;SDS011;33088;51.982;5.872;2023-03-24T06:24:28;15.20;;;4.13;;
47349;SDS011;33088;51.982;5.872;2023-03-24T06:27:01;14.80;;;4.28;;
47349;SDS011;33088;51.982;5.872;2023-03-24T06:29:29;16.75;;;5.10;;
47349;SDS011;33088;51.982;5.872;2023-03-24T06:31:55;16.02;;;3.80;;
47349;SDS011;33088;51.982;5.872;2023-03-24T06:34:21;16.15;;;4.00;;
47349;SDS011;33088;51.982;5.872;2023-03-24T06:37:02;17.02;;;4.45;;
47349;SDS011;33088;51.982;5.872;2023-03-24T06:39:27;17.35;;;4.35;;
47349;SDS011;33088;51.982;5.872;2023-03-24T06:41:53;13.20;;;3.58;;
47349;SDS011;33088;51.982;5.872;2023-03-24T06:44:20;9.02;;;3.50;;
47349;SDS011;33088;51.982;5.872;2023-03-24T06:46:45;15.43;;;3.70;;
47349;SDS011;33088;51.982;5.872;2023-03-24T06:49:11;16.50;;;4.78;;
47349;SDS011;33088;51.982;5.872;2023-03-24T06:51:37;16.60;;;4.43;;
47349;SDS011;33088;51.982;5.872;2023-03-24T06:54:03;13.90;;;3.80;;
47349;SDS011;33088;51.982;5.872;2023-03-24T06:56:29;19.52;;;3.70;;
47349;SDS011;33088;51.982;5.872;2023-03-24T06:58:58;15.82;;;3.67;;
47349;SDS011;33088;51.982;5.872;2023-03-24T07:01:29;23.90;;;6.13;;
47349;SDS011;33088;51.982;5.872;2023-03-24T07:04:03;15.82;;;3.55;;
47349;SDS011;33088;51.982;5.872;2023-03-24T07:06:29;15.43;;;3.67;;
47349;SDS011;33088;51.982;5.872;2023-03-24T07:09:04;18.80;;;3.83;;
47349;SDS011;33088;51.982;5.872;2023-03-24T07:11:30;15.13;;;3.92;;
47349;SDS011;33088;51.982;5.872;2023-03-24T07:13:57;18.63;;;4.18;;
47349;SDS011;33088;51.982;5.872;2023-03-24T07:16:24;12.90;;;3.38;;
47349;SDS011;33088;51.982;5.872;2023-03-24T07:19:10;16.60;;;4.38;;
47349;SDS011;33088;51.982;5.872;2023-03-24T07:21:37;16.13;;;3.42;;
47349;SDS011;33088;51.982;5.872;2023-03-24T07:24:03;14.43;;;3.80;;
47349;SDS011;33088;51.982;5.872;2023-03-24T07:26:39;11.75;;;3.47;;
47349;SDS011;33088;51.982;5.872;2023-03-24T07:29:17;13.45;;;3.45;;
47349;SDS011;33088;51.982;5.872;2023-03-24T07:31:59;19.30;;;4.45;;
47349;SDS011;33088;51.982;5.872;2023-03-24T07:34:26;18.55;;;3.45;;
47349;SDS011;33088;51.982;5.872;2023-03-24T07:36:54;16.48;;;3.15;;
47349;SDS011;33088;51.982;5.872;2023-03-24T07:39:20;17.38;;;4.00;;
47349;SDS011;33088;51.982;5.872;2023-03-24T07:41:46;10.52;;;2.80;;
47349;SDS011;33088;51.982;5.872;2023-03-24T07:44:35;15.45;;;4.20;;
47349;SDS011;33088;51.982;5.872;2023-03-24T07:47:00;15.10;;;3.83;;
47349;SDS011;33088;51.982;5.872;2023-03-24T07:49:26;14.52;;;3.10;;
47349;SDS011;33088;51.982;5.872;2023-03-24T07:52:00;15.55;;;3.40;;
47349;SDS011;33088;51.982;5.872;2023-03-24T07:54:39;23.55;;;5.75;;
47349;SDS011;33088;51.982;5.872;2023-03-24T07:57:05;18.38;;;4.20;;
47349;SDS011;33088;51.982;5.872;2023-03-24T07:59:31;19.70;;;3.47;;
47349;SDS011;33088;51.982;5.872;2023-03-24T08:02:17;17.55;;;3.42;;
47349;SDS011;33088;51.982;5.872;2023-03-24T08:04:53;15.57;;;3.03;;
47349;SDS011;33088;51.982;5.872;2023-03-24T08:07:45;16.90;;;3.15;;
47349;SDS011;33088;51.982;5.872;2023-03-24T08:10:17;14.75;;;3.28;;
47349;SDS011;33088;51.982;5.872;2023-03-24T08:12:45;14.82;;;3.45;;
47349;SDS011;33088;51.982;5.872;2023-03-24T08:15:11;15.60;;;2.78;;
47349;SDS011;33088;51.982;5.872;2023-03-24T08:17:38;13.55;;;2.83;;
47349;SDS011;33088;51.982;5.872;2023-03-24T08:20:05;16.00;;;3.35;;
47349;SDS011;33088;51.982;5.872;2023-03-24T08:22:42;13.18;;;2.72;;
47349;SDS011;33088;51.982;5.872;2023-03-24T08:25:10;15.02;;;3.65;;
47349;SDS011;33088;51.982;5.872;2023-03-24T08:27:37;13.68;;;3.53;;
47349;SDS011;33088;51.982;5.872;2023-03-24T08:30:07;18.58;;;3.88;;
47349;SDS011;33088;51.982;5.872;2023-03-24T08:32:40;12.57;;;3.33;;
47349;SDS011;33088;51.982;5.872;2023-03-24T08:35:12;13.68;;;2.90;;
47349;SDS011;33088;51.982;5.872;2023-03-24T08:37:39;19.25;;;3.97;;
47349;SDS011;33088;51.982;5.872;2023-03-24T08:40:10;16.60;;;3.80;;
47349;SDS011;33088;51.982;5.872;2023-03-24T08:42:38;15.93;;;4.68;;
47349;SDS011;33088;51.982;5.872;2023-03-24T08:45:07;11.77;;;3.42;;
47349;SDS011;33088;51.982;5.872;2023-03-24T08:47:36;13.55;;;2.72;;
47349;SDS011;33088;51.982;5.872;2023-03-24T08:50:02;23.80;;;4.32;;
47349;SDS011;33088;51.982;5.872;2023-03-24T08:52:28;18.45;;;3.90;;
47349;SDS011;33088;51.982;5.872;2023-03-24T08:54:54;19.60;;;3.55;;
47349;SDS011;33088;51.982;5.872;2023-03-24T08:57:20;13.65;;;4.82;;
47349;SDS011;33088;51.982;5.872;2023-03-24T08:59:46;15.82;;;4.05;;
47349;SDS011;33088;51.982;5.872;2023-03-24T09:02:12;7.90;;;3.47;;
47349;SDS011;33088;51.982;5.872;2023-03-24T09:04:37;15.02;;;2.83;;
47349;SDS011;33088;51.982;5.872;2023-03-24T09:07:03;13.68;;;3.55;;
47349;SDS011;33088;51.982;5.872;2023-03-24T09:09:30;16.17;;;3.55;;
47349;SDS011;33088;51.982;5.872;2023-03-24T09:11:57;14.05;;;3.65;;
47349;SDS011;33088;51.982;5.872;2023-03-24T09:14:22;12.48;;;4.05;;
47349;SDS011;33088;51.982;5.872;2023-03-24T09:16:48;15.95;;;3.28;;
47349;SDS011;33088;51.982;5.872;2023-03-24T09:19:15;13.65;;;2.65;;
47349;SDS011;33088;51.982;5.872;2023-03-24T09:21:44;16.58;;;3.70;;
47349;SDS011;33088;51.982;5.872;2023-03-24T09:24:11;17.77;;;3.20;;
47349;SDS011;33088;51.982;5.872;2023-03-24T09:26:37;17.73;;;3.55;;
47349;SDS011;33088;51.982;5.872;2023-03-24T09:29:03;18.85;;;2.70;;
47349;SDS011;33088;51.982;5.872;2023-03-24T09:31:29;12.35;;;2.65;;
47349;SDS011;33088;51.982;5.872;2023-03-24T09:33:55;12.32;;;2.75;;
47349;SDS011;33088;51.982;5.872;2023-03-24T09:36:21;9.35;;;2.45;;
47349;SDS011;33088;51.982;5.872;2023-03-24T09:38:46;10.55;;;2.28;;
47349;SDS011;33088;51.982;5.872;2023-03-24T09:41:20;11.70;;;3.30;;
47349;SDS011;33088;51.982;5.872;2023-03-24T09:46:48;13.13;;;3.30;;
47349;SDS011;33088;51.982;5.872;2023-03-24T09:49:22;10.25;;;2.63;;
47349;SDS011;33088;51.982;5.872;2023-03-24T09:51:53;13.85;;;3.15;;
47349;SDS011;33088;51.982;5.872;2023-03-24T09:54:37;13.43;;;2.10;;
47349;SDS011;33088;51.982;5.872;2023-03-24T09:59:56;9.02;;;2.85;;
47349;SDS011;33088;51.982;5.872;2023-03-24T10:02:22;7.93;;;2.13;;
47349;SDS011;33088;51.982;5.872;2023-03-24T10:04:48;6.45;;;2.08;;
47349;SDS011;33088;51.982;5.872;2023-03-24T10:09:43;6.85;;;1.60;;
47349;SDS011;33088;51.982;5.872;2023-03-24T10:18:32;10.57;;;2.50;;
47349;SDS011;33088;51.982;5.872;2023-03-24T10:20:55;11.43;;;2.30;;
47349;SDS011;33088;51.982;5.872;2023-03-24T10:29:15;17.10;;;2.53;;
47349;SDS011;33088;51.982;5.872;2023-03-24T10:32:11;11.13;;;2.50;;
47349;SDS011;33088;51.982;5.872;2023-03-24T10:34:46;14.25;;;2.95;;
47349;SDS011;33088;51.982;5.872;2023-03-24T10:37:16;12.57;;;2.60;;
47349;SDS011;33088;51.982;5.872;2023-03-24T10:39:43;11.18;;;2.55;;
47349;SDS011;33088;51.982;5.872;2023-03-24T10:42:12;7.50;;;2.40;;
47349;SDS011;33088;51.982;5.872;2023-03-24T10:44:46;7.40;;;2.17;;
47349;SDS011;33088;51.982;5.872;2023-03-24T10:47:13;11.93;;;2.47;;
47349;SDS011;33088;51.982;5.872;2023-03-24T10:49:53;10.90;;;2.35;;
47349;SDS011;33088;51.982;5.872;2023-03-24T10:52:24;12.20;;;2.85;;
47349;SDS011;33088;51.982;5.872;2023-03-24T10:54:57;12.35;;;2.88;;
47349;SDS011;33088;51.982;5.872;2023-03-24T10:57:30;12.63;;;2.67;;
47349;SDS011;33088;51.982;5.872;2023-03-24T11:00:04;11.57;;;2.47;;
47349;SDS011;33088;51.982;5.872;2023-03-24T11:02:39;17.88;;;2.85;;
47349;SDS011;33088;51.982;5.872;2023-03-24T11:07:43;8.65;;;2.50;;
47349;SDS011;33088;51.982;5.872;2023-03-24T11:15:19;12.87;;;2.57;;
47349;SDS011;33088;51.982;5.872;2023-03-24T11:17:48;7.82;;;2.10;;
47349;SDS011;33088;51.982;5.872;2023-03-24T11:20:36;8.93;;;2.15;;
47349;SDS011;33088;51.982;5.872;2023-03-24T11:26:15;9.63;;;2.33;;
47349;SDS011;33088;51.982;5.872;2023-03-24T11:31:11;3.30;;;1.55;;
47349;SDS011;33088;51.982;5.872;2023-03-24T11:39:25;5.28;;;1.17;;
47349;SDS011;33088;51.982;5.872;2023-03-24T11:41:58;6.05;;;1.55;;
47349;SDS011;33088;51.982;5.872;2023-03-24T11:44:43;3.13;;;1.10;;
47349;SDS011;33088;51.982;5.872;2023-03-24T11:47:12;6.72;;;1.00;;
47349;SDS011;33088;51.982;5.872;2023-03-24T11:50:00;3.72;;;1.02;;
47349;SDS011;33088;51.982;5.872;2023-03-24T11:52:30;5.03;;;1.50;;
47349;SDS011;33088;51.982;5.872;2023-03-24T11:55:00;2.90;;;0.88;;
47349;SDS011;33088;51.982;5.872;2023-03-24T12:00:30;5.28;;;1.20;;
47349;SDS011;33088;51.982;5.872;2023-03-24T12:06:18;6.75;;;1.95;;
47349;SDS011;33088;51.982;5.872;2023-03-24T12:11:38;6.57;;;2.65;;
47349;SDS011;33088;51.982;5.872;2023-03-24T12:14:22;13.38;;;3.50;;
47349;SDS011;33088;51.982;5.872;2023-03-24T12:17:15;17.13;;;4.43;;
47349;SDS011;33088;51.982;5.872;2023-03-24T12:22:34;8.73;;;2.42;;
47349;SDS011;33088;51.982;5.872;2023-03-24T12:25:27;7.82;;;1.90;;
47349;SDS011;33088;51.982;5.872;2023-03-24T12:39:27;6.03;;;1.10;;
47349;SDS011;33088;51.982;5.872;2023-03-24T12:52:29;9.88;;;2.45;;
47349;SDS011;33088;51.982;5.872;2023-03-24T12:55:02;8.20;;;1.80;;
47349;SDS011;33088;51.982;5.872;2023-03-24T12:57:31;6.65;;;1.42;;
47349;SDS011;33088;51.982;5.872;2023-03-24T13:00:12;7.05;;;1.70;;
47349;SDS011;33088;51.982;5.872;2023-03-24T13:02:50;6.25;;;1.58;;
47349;SDS011;33088;51.982;5.872;2023-03-24T13:05:23;5.10;;;1.73;;
47349;SDS011;33088;51.982;5.872;2023-03-24T13:07:57;5.20;;;1.55;;
47349;SDS011;33088;51.982;5.872;2023-03-24T13:10:32;5.35;;;1.88;;
47349;SDS011;33088;51.982;5.872;2023-03-24T13:15:44;7.53;;;2.60;;
47349;SDS011;33088;51.982;5.872;2023-03-24T13:20:59;4.90;;;2.47;;
47349;SDS011;33088;51.982;5.872;2023-03-24T13:23:38;11.20;;;2.90;;
47349;SDS011;33088;51.982;5.872;2023-03-24T13:31:27;10.90;;;4.00;;
47349;SDS011;33088;51.982;5.872;2023-03-24T13:33:59;10.80;;;3.97;;
47349;SDS011;33088;51.982;5.872;2023-03-24T13:39:04;6.07;;;1.95;;
47349;SDS011;33088;51.982;5.872;2023-03-24T13:41:36;7.43;;;1.60;;
47349;SDS011;33088;51.982;5.872;2023-03-24T13:46:34;1.63;;;0.80;;
47349;SDS011;33088;51.982;5.872;2023-03-24T13:49:03;4.80;;;1.20;;
47349;SDS011;33088;51.982;5.872;2023-03-24T14:00:06;4.60;;;1.00;;
47349;SDS011;33088;51.982;5.872;2023-03-24T14:05:02;2.30;;;0.95;;
47349;SDS011;33088;51.982;5.872;2023-03-24T14:07:49;3.15;;;0.90;;
47349;SDS011;33088;51.982;5.872;2023-03-24T14:10:48;7.53;;;1.40;;
47349;SDS011;33088;51.982;5.872;2023-03-24T14:15:56;2.83;;;1.00;;
47349;SDS011;33088;51.982;5.872;2023-03-24T14:28:47;8.55;;;2.10;;
47349;SDS011;33088;51.982;5.872;2023-03-24T14:39:04;9.20;;;2.25;;
47349;SDS011;33088;51.982;5.872;2023-03-24T14:41:35;6.03;;;2.00;;
47349;SDS011;33088;51.982;5.872;2023-03-24T14:44:05;5.93;;;2.30;;
47349;SDS011;33088;51.982;5.872;2023-03-24T14:47:05;8.63;;;2.75;;
47349;SDS011;33088;51.982;5.872;2023-03-24T14:49:30;5.93;;;1.75;;
47349;SDS011;33088;51.982;5.872;2023-03-24T14:54:47;5.60;;;1.40;;
47349;SDS011;33088;51.982;5.872;2023-03-24T14:57:24;4.57;;;1.38;;
47349;SDS011;33088;51.982;5.872;2023-03-24T14:59:54;4.33;;;1.03;;
47349;SDS011;33088;51.982;5.872;2023-03-24T15:02:37;1.73;;;0.85;;
47349;SDS011;33088;51.982;5.872;2023-03-24T15:08:03;3.85;;;1.38;;
47349;SDS011;33088;51.982;5.872;2023-03-24T15:13:27;3.13;;;1.08;;
47349;SDS011;33088;51.982;5.872;2023-03-24T15:15:56;4.43;;;0.85;;
47349;SDS011;33088;51.982;5.872;2023-03-24T15:18:23;6.60;;;1.35;;
47349;SDS011;33088;51.982;5.872;2023-03-24T15:20:52;1.52;;;0.80;;
47349;SDS011;33088;51.982;5.872;2023-03-24T15:23:19;4.82;;;1.67;;
47349;SDS011;33088;51.982;5.872;2023-03-24T15:25:47;2.05;;;1.02;;
47349;SDS011;33088;51.982;5.872;2023-03-24T15:30:47;6.85;;;1.80;;
47349;SDS011;33088;51.982;5.872;2023-03-24T15:33:13;7.95;;;1.27;;
47349;SDS011;33088;51.982;5.872;2023-03-24T15:35:41;15.90;;;1.77;;
47349;SDS011;33088;51.982;5.872;2023-03-24T15:38:16;6.50;;;1.27;;
47349;SDS011;33088;51.982;5.872;2023-03-24T15:41:19;7.65;;;1.42;;
47349;SDS011;33088;51.982;5.872;2023-03-24T15:43:43;6.60;;;1.27;;
47349;SDS011;33088;51.982;5.872;2023-03-24T15:46:17;8.43;;;1.05;;
47349;SDS011;33088;51.982;5.872;2023-03-24T15:48:51;6.22;;;1.83;;
47349;SDS011;33088;51.982;5.872;2023-03-24T15:51:18;3.55;;;1.00;;
47349;SDS011;33088;51.982;5.872;2023-03-24T15:53:45;9.23;;;2.00;;
47349;SDS011;33088;51.982;5.872;2023-03-24T15:56:29;8.00;;;1.55;;
47349;SDS011;33088;51.982;5.872;2023-03-24T16:01:30;5.03;;;1.30;;
47349;SDS011;33088;51.982;5.872;2023-03-24T16:04:18;7.28;;;2.00;;
47349;SDS011;33088;51.982;5.872;2023-03-24T16:06:48;7.57;;;1.73;;
47349;SDS011;33088;51.982;5.872;2023-03-24T16:09:17;5.13;;;1.70;;
47349;SDS011;33088;51.982;5.872;2023-03-24T16:11:51;11.88;;;2.10;;
47349;SDS011;33088;51.982;5.872;2023-03-24T16:14:19;7.85;;;3.08;;
47349;SDS011;33088;51.982;5.872;2023-03-24T16:16:54;6.22;;;2.10;;
47349;SDS011;33088;51.982;5.872;2023-03-24T16:19:21;11.85;;;4.28;;
47349;SDS011;33088;51.982;5.872;2023-03-24T16:21:47;7.53;;;2.10;;
47349;SDS011;33088;51.982;5.872;2023-03-24T16:24:13;8.55;;;3.17;;
47349;SDS011;33088;51.982;5.872;2023-03-24T16:26:38;6.15;;;2.17;;
47349;SDS011;33088;51.982;5.872;2023-03-24T16:29:13;7.63;;;1.92;;
47349;SDS011;33088;51.982;5.872;2023-03-24T16:31:43;7.47;;;2.03;;
47349;SDS011;33088;51.982;5.872;2023-03-24T16:34:13;7.22;;;1.60;;
47349;SDS011;33088;51.982;5.872;2023-03-24T16:36:43;7.35;;;1.73;;
47349;SDS011;33088;51.982;5.872;2023-03-24T16:39:14;4.78;;;1.60;;
47349;SDS011;33088;51.982;5.872;2023-03-24T16:41:42;8.00;;;2.33;;
47349;SDS011;33088;51.982;5.872;2023-03-24T16:44:08;8.45;;;2.10;;
47349;SDS011;33088;51.982;5.872;2023-03-24T16:46:35;7.25;;;1.90;;
47349;SDS011;33088;51.982;5.872;2023-03-24T16:49:02;12.45;;;2.42;;
47349;SDS011;33088;51.982;5.872;2023-03-24T16:51:29;4.50;;;1.67;;
47349;SDS011;33088;51.982;5.872;2023-03-24T16:53:55;4.53;;;1.52;;
47349;SDS011;33088;51.982;5.872;2023-03-24T16:56:21;6.03;;;1.95;;
47349;SDS011;33088;51.982;5.872;2023-03-24T16:58:48;9.45;;;2.70;;
47349;SDS011;33088;51.982;5.872;2023-03-24T17:01:29;8.70;;;2.40;;
47349;SDS011;33088;51.982;5.872;2023-03-24T17:06:33;5.30;;;1.93;;
47349;SDS011;33088;51.982;5.872;2023-03-24T17:09:00;6.45;;;2.15;;
47349;SDS011;33088;51.982;5.872;2023-03-24T17:11:30;6.45;;;2.08;;
47349;SDS011;33088;51.982;5.872;2023-03-24T17:13:58;4.82;;;2.13;;
47349;SDS011;33088;51.982;5.872;2023-03-24T17:16:33;5.63;;;2.20;;
47349;SDS011;33088;51.982;5.872;2023-03-24T17:19:22;10.93;;;2.42;;
47349;SDS011;33088;51.982;5.872;2023-03-24T17:22:00;7.97;;;2.92;;
47349;SDS011;33088;51.982;5.872;2023-03-24T17:24:28;11.18;;;2.33;;
47349;SDS011;33088;51.982;5.872;2023-03-24T17:26:59;5.63;;;1.98;;
47349;SDS011;33088;51.982;5.872;2023-03-24T17:29:25;10.18;;;2.30;;
47349;SDS011;33088;51.982;5.872;2023-03-24T17:31:52;10.95;;;2.50;;
47349;SDS011;33088;51.982;5.872;2023-03-24T17:34:18;9.30;;;2.22;;
47349;SDS011;33088;51.982;5.872;2023-03-24T17:36:45;8.27;;;2.03;;
47349;SDS011;33088;51.982;5.872;2023-03-24T17:39:14;7.95;;;1.80;;
47349;SDS011;33088;51.982;5.872;2023-03-24T17:41:41;5.53;;;2.15;;
47349;SDS011;33088;51.982;5.872;2023-03-24T17:44:07;5.80;;;1.88;;
47349;SDS011;33088;51.982;5.872;2023-03-24T17:46:33;3.58;;;1.70;;
47349;SDS011;33088;51.982;5.872;2023-03-24T17:48:59;8.95;;;1.92;;
47349;SDS011;33088;51.982;5.872;2023-03-24T17:51:25;8.50;;;2.22;;
47349;SDS011;33088;51.982;5.872;2023-03-24T17:53:52;4.30;;;1.52;;
47349;SDS011;33088;51.982;5.872;2023-03-24T17:56:21;11.77;;;2.58;;
47349;SDS011;33088;51.982;5.872;2023-03-24T17:58:46;13.07;;;2.13;;
47349;SDS011;33088;51.982;5.872;2023-03-24T18:01:12;9.35;;;1.83;;
47349;SDS011;33088;51.982;5.872;2023-03-24T18:03:42;7.72;;;2.00;;
47349;SDS011;33088;51.982;5.872;2023-03-24T18:06:08;6.75;;;2.10;;
47349;SDS011;33088;51.982;5.872;2023-03-24T18:08:36;12.63;;;2.00;;
47349;SDS011;33088;51.982;5.872;2023-03-24T18:11:07;6.53;;;1.95;;
47349;SDS011;33088;51.982;5.872;2023-03-24T18:13:34;5.75;;;1.80;;
47349;SDS011;33088;51.982;5.872;2023-03-24T18:16:01;12.48;;;2.00;;